Time;durP1;ratioP1;P1;durP2;ratioP2;P2;SDS_P1;SDS_P2;PMS_P1;PMS_P2;Temp;Humidity;BMP_temperature;BMP_pressure;BME280_temperature;BME280_humidity;BME280_pressure;Samples;Min_cycle;Max_cycle;Signal;HPM_P1;HPM_P2
2023/07/30 00:01:13;;;;;;;3.03;2.72;;;23.30;99.90;;;;;;5032440;28;20055;-63
2023/07/30 00:03:39;;;;;;;3.90;3.50;;;23.10;99.90;;;;;;5032570;28;20032;-63
2023/07/30 00:06:29;;;;;;;3.42;3.10;;;23.10;99.90;;;;;;5032955;28;20026;-63
2023/07/30 00:08:55;;;;;;;3.55;2.85;;;23.00;99.90;;;;;;5032501;28;20022;-63
2023/07/30 00:11:21;;;;;;;3.10;2.90;;;23.20;99.90;;;;;;5032593;28;20030;-63
2023/07/30 00:13:46;;;;;;;3.60;3.00;;;23.10;99.90;;;;;;5032362;28;20033;-63
2023/07/30 00:16:12;;;;;;;3.42;2.80;;;23.10;99.90;;;;;;5032555;28;20076;-63
2023/07/30 00:18:38;;;;;;;3.55;3.20;;;23.20;99.90;;;;;;5032900;28;20061;-63
2023/07/30 00:21:03;;;;;;;2.80;2.60;;;22.90;99.90;;;;;;5036185;28;20045;-63
2023/07/30 00:23:29;;;;;;;3.17;2.83;;;23.00;99.90;;;;;;5036420;28;20108;-63
2023/07/30 00:25:54;;;;;;;3.78;2.63;;;23.00;99.90;;;;;;5036311;28;20061;-63
2023/07/30 00:28:20;;;;;;;3.13;2.78;;;23.30;99.90;;;;;;5036277;28;20037;-63
2023/07/30 00:30:47;;;;;;;4.38;2.78;;;23.30;99.90;;;;;;5035969;28;20048;-63
2023/07/30 00:33:12;;;;;;;3.08;2.78;;;23.10;99.90;;;;;;5035825;28;20017;-63
2023/07/30 00:35:38;;;;;;;2.83;2.38;;;23.00;99.90;;;;;;5036297;28;20458;-63
2023/07/30 00:38:04;;;;;;;3.03;2.65;;;22.80;99.90;;;;;;5036040;28;20030;-63
2023/07/30 00:41:16;;;;;;;2.83;2.60;;;23.10;99.90;;;;;;5035722;28;20038;-63
2023/07/30 00:43:42;;;;;;;3.10;2.50;;;22.90;99.90;;;;;;5035190;28;20018;-63
2023/07/30 00:46:08;;;;;;;4.10;3.67;;;22.80;99.90;;;;;;5035701;28;20037;-63
2023/07/30 00:48:34;;;;;;;3.53;3.20;;;23.10;99.90;;;;;;5034264;28;20482;-63
2023/07/30 00:51:00;;;;;;;3.55;2.75;;;22.90;99.90;;;;;;5035655;28;20032;-63
2023/07/30 00:53:27;;;;;;;3.17;2.95;;;23.20;99.90;;;;;;5035604;28;20532;-63
2023/07/30 00:55:53;;;;;;;2.83;2.63;;;23.00;99.90;;;;;;5035516;28;20025;-63
2023/07/30 00:58:21;;;;;;;4.30;2.78;;;23.10;99.90;;;;;;5035343;28;20546;-63
2023/07/30 01:00:47;;;;;;;6.15;3.45;;;23.00;99.90;;;;;;5034994;28;20360;-63
2023/07/30 01:03:13;;;;;;;3.30;3.00;;;23.00;99.90;;;;;;5035380;28;20051;-63
2023/07/30 01:05:39;;;;;;;5.10;3.00;;;22.90;99.90;;;;;;5033984;28;20025;-63
2023/07/30 01:08:04;;;;;;;2.75;2.55;;;23.00;99.90;;;;;;5035404;28;20029;-63
2023/07/30 01:10:32;;;;;;;4.00;3.20;;;22.80;99.90;;;;;;5034446;28;20048;-63
2023/07/30 01:13:01;;;;;;;3.63;3.30;;;23.00;99.90;;;;;;5034390;28;20033;-63
2023/07/30 01:15:28;;;;;;;4.20;3.90;;;22.90;99.90;;;;;;5034682;28;20032;-63
2023/07/30 01:17:54;;;;;;;4.55;4.15;;;22.80;99.90;;;;;;5034411;28;20025;-63
2023/07/30 01:20:21;;;;;;;4.22;3.78;;;22.80;99.90;;;;;;5034492;28;20083;-63
2023/07/30 01:22:48;;;;;;;6.13;4.32;;;23.00;99.90;;;;;;5034250;28;20033;-64
2023/07/30 01:25:16;;;;;;;5.38;4.07;;;22.90;99.90;;;;;;5034304;28;20026;-64
2023/07/30 01:27:47;;;;;;;6.43;4.97;;;22.80;99.90;;;;;;5033911;28;20049;-64
2023/07/30 01:30:27;;;;;;;5.20;4.70;;;22.90;99.90;;;;;;5034939;28;20048;-63
2023/07/30 01:32:54;;;;;;;4.38;3.88;;;22.80;99.90;;;;;;5020877;28;20033;-63
2023/07/30 01:35:28;;;;;;;6.85;3.90;;;23.00;99.90;;;;;;5034413;28;20049;-64
2023/07/30 01:37:54;;;;;;;5.50;3.72;;;23.00;99.90;;;;;;5034656;28;20025;-64
2023/07/30 01:40:20;;;;;;;5.20;3.80;;;22.90;99.90;;;;;;5034914;28;20037;-64
2023/07/30 01:42:46;;;;;;;4.78;3.42;;;22.80;99.90;;;;;;5034465;28;20435;-63
2023/07/30 01:45:12;;;;;;;4.60;3.40;;;22.60;99.90;;;;;;5033309;28;20109;-64
2023/07/30 01:47:39;;;;;;;4.38;2.90;;;22.60;99.90;;;;;;5034783;28;20104;-63
2023/07/30 01:50:05;;;;;;;4.05;3.60;;;22.50;99.90;;;;;;5016839;28;20040;-63
2023/07/30 01:52:31;;;;;;;5.40;4.55;;;22.60;99.90;;;;;;5032312;28;20037;-63
2023/07/30 01:54:58;;;;;;;5.25;4.65;;;22.70;99.90;;;;;;5034679;28;20017;-63
2023/07/30 01:57:24;;;;;;;5.38;4.60;;;22.50;99.90;;;;;;5034373;28;20033;-63
2023/07/30 01:59:50;;;;;;;5.80;5.30;;;22.60;99.90;;;;;;5033991;28;20033;-64
2023/07/30 02:02:15;;;;;;;6.20;5.47;;;22.50;99.90;;;;;;5034006;28;20415;-64
2023/07/30 02:04:41;;;;;;;6.43;5.80;;;22.50;99.90;;;;;;5034207;28;20053;-64
2023/07/30 02:07:07;;;;;;;7.20;5.75;;;22.50;99.90;;;;;;5034160;28;20075;-64
2023/07/30 02:09:32;;;;;;;7.22;5.75;;;22.70;99.90;;;;;;5034056;28;20079;-64
2023/07/30 02:11:58;;;;;;;8.95;6.53;;;22.60;99.90;;;;;;5034420;28;20061;-64
2023/07/30 02:14:23;;;;;;;7.72;5.90;;;22.70;99.90;;;;;;5033840;28;20450;-64
2023/07/30 02:16:49;;;;;;;6.85;5.30;;;22.80;99.90;;;;;;5034039;28;20021;-64
2023/07/30 02:19:15;;;;;;;7.00;6.15;;;22.60;99.90;;;;;;5033827;28;20479;-64
2023/07/30 02:21:42;;;;;;;6.47;5.75;;;22.70;99.90;;;;;;5033228;28;20049;-64
2023/07/30 02:24:20;;;;;;;4.82;4.32;;;22.70;99.90;;;;;;5033701;28;20022;-64
2023/07/30 02:26:46;;;;;;;5.55;4.63;;;22.80;99.90;;;;;;5033791;28;20022;-64
2023/07/30 02:29:11;;;;;;;5.10;4.60;;;22.80;99.90;;;;;;5033766;28;20483;-64
2023/07/30 02:31:37;;;;;;;4.28;3.88;;;22.80;99.90;;;;;;5032365;28;20072;-62
2023/07/30 02:34:03;;;;;;;5.18;4.13;;;22.80;99.90;;;;;;5033519;28;20053;-63
2023/07/30 02:36:28;;;;;;;3.95;3.60;;;22.80;99.90;;;;;;5033702;28;20033;-64
2023/07/30 02:38:54;;;;;;;3.80;3.38;;;22.80;99.90;;;;;;5033392;28;20111;-63
2023/07/30 02:41:19;;;;;;;3.72;3.33;;;22.90;99.90;;;;;;5033493;28;20352;-64
2023/07/30 02:43:45;;;;;;;3.85;3.55;;;22.90;99.90;;;;;;5032661;28;20563;-63
2023/07/30 02:46:11;;;;;;;4.03;3.63;;;22.90;99.90;;;;;;5033316;28;20040;-63
2023/07/30 02:48:36;;;;;;;3.80;3.50;;;22.90;99.90;;;;;;5033770;28;20399;-63
2023/07/30 02:51:02;;;;;;;4.03;3.67;;;22.90;99.90;;;;;;5031842;28;20530;-64
2023/07/30 02:53:28;;;;;;;3.90;3.50;;;23.00;99.90;;;;;;5032234;28;20075;-64
2023/07/30 02:55:57;;;;;;;3.80;3.30;;;23.00;20.40;;;;;;5033373;28;20067;-64
2023/07/30 02:58:23;;;;;;;3.30;3.00;;;23.00;1.00;;;;;;5033709;28;20033;-64
2023/07/30 03:04:23;;;;;;;3.50;3.30;;;23.10;1.00;;;;;;5032978;28;20072;-64
2023/07/30 03:06:48;;;;;;;4.00;3.60;;;23.10;1.00;;;;;;5033349;28;20037;-64
2023/07/30 03:09:14;;;;;;;4.63;2.90;;;23.10;1.00;;;;;;5033192;28;20025;-63
2023/07/30 03:11:43;;;;;;;3.40;3.00;;;23.10;1.00;;;;;;5031996;28;20490;-63
2023/07/30 03:14:08;;;;;;;3.33;2.60;;;23.20;1.00;;;;;;5033385;28;20037;-63
2023/07/30 03:16:34;;;;;;;3.83;3.13;;;23.30;1.00;;;;;;5033145;28;20079;-63
2023/07/30 03:19:00;;;;;;;3.83;2.97;;;23.30;1.00;;;;;;5033109;28;20471;-63
2023/07/30 03:21:25;;;;;;;3.40;3.10;;;23.30;1.00;;;;;;5032973;28;20029;-63
2023/07/30 03:23:51;;;;;;;3.65;2.92;;;23.20;1.00;;;;;;5033352;28;20033;-63
2023/07/30 03:26:17;;;;;;;3.05;2.78;;;23.20;1.00;;;;;;5033155;28;20494;-63
2023/07/30 03:28:42;;;;;;;2.60;2.40;;;23.30;1.00;;;;;;5033001;28;20036;-63
2023/07/30 03:31:08;;;;;;;3.70;2.70;;;23.40;1.00;;;;;;5033112;28;20029;-63
2023/07/30 03:33:34;;;;;;;3.05;2.83;;;23.30;1.00;;;;;;5033040;28;20423;-63
2023/07/30 03:36:00;;;;;;;3.05;2.60;;;23.30;1.00;;;;;;5032723;28;20029;-63
2023/07/30 03:38:25;;;;;;;3.35;3.05;;;23.30;1.00;;;;;;5032901;28;20525;-63
2023/07/30 03:40:51;;;;;;;4.63;2.90;;;23.30;1.00;;;;;;5033120;28;20037;-63
2023/07/30 03:43:17;;;;;;;2.60;2.40;;;23.20;1.00;;;;;;5032992;28;20060;-63
2023/07/30 03:45:43;;;;;;;3.13;2.83;;;23.30;1.00;;;;;;5032782;28;20458;-63
2023/07/30 03:48:09;;;;;;;3.65;3.35;;;23.20;1.00;;;;;;5032867;28;20026;-63
2023/07/30 03:50:35;;;;;;;4.35;3.97;;;23.30;1.00;;;;;;5031614;28;20430;-63
2023/07/30 03:53:00;;;;;;;6.95;5.47;;;23.30;1.00;;;;;;5032645;28;20025;-63
2023/07/30 03:55:26;;;;;;;7.20;6.28;;;23.30;1.00;;;;;;5035839;28;20033;-63
2023/07/30 03:57:52;;;;;;;8.48;7.63;;;23.20;1.00;;;;;;5036600;28;20036;-62
2023/07/30 04:00:18;;;;;;;8.90;8.05;;;23.30;1.00;;;;;;5036577;28;20079;-63
2023/07/30 04:02:43;;;;;;;8.32;7.45;;;23.20;1.00;;;;;;5036743;28;20480;-62
2023/07/30 04:05:09;;;;;;;8.38;7.53;;;23.30;1.00;;;;;;5036384;28;20094;-63
2023/07/30 04:07:34;;;;;;;9.93;8.85;;;23.30;1.00;;;;;;5036227;28;20033;-62
2023/07/30 04:10:00;;;;;;;10.40;8.52;;;23.10;1.00;;;;;;5036690;28;20017;-63
2023/07/30 04:12:26;;;;;;;10.52;9.27;;;23.10;1.00;;;;;;5036378;28;20367;-63
2023/07/30 04:14:52;;;;;;;8.55;7.68;;;23.30;1.00;;;;;;5036112;28;20033;-64
2023/07/30 04:17:17;;;;;;;9.20;8.30;;;23.20;1.00;;;;;;5036022;28;20025;-63
2023/07/30 04:19:43;;;;;;;9.35;8.40;;;23.30;1.00;;;;;;5036581;28;20025;-64
2023/07/30 04:22:08;;;;;;;9.15;8.35;;;23.30;1.00;;;;;;5036247;28;20033;-63
2023/07/30 04:24:34;;;;;;;10.00;9.07;;;23.30;1.00;;;;;;5036075;28;20064;-62
2023/07/30 04:27:01;;;;;;;9.32;8.38;;;23.30;1.00;;;;;;5035985;28;20080;-62
2023/07/30 04:29:26;;;;;;;9.23;8.32;;;23.20;1.00;;;;;;5035870;28;20022;-63
2023/07/30 04:31:52;;;;;;;9.75;8.68;;;23.20;1.00;;;;;;5036228;28;20030;-63
2023/07/30 04:34:17;;;;;;;9.75;8.52;;;23.30;1.00;;;;;;5036068;28;20112;-62
2023/07/30 04:36:43;;;;;;;9.13;8.23;;;23.20;1.00;;;;;;5036126;28;20104;-63
2023/07/30 04:39:09;;;;;;;9.73;8.73;;;23.30;1.00;;;;;;5035842;28;20025;-62
2023/07/30 04:41:35;;;;;;;9.30;8.38;;;23.40;1.00;;;;;;5035705;28;20061;-63
2023/07/30 04:44:00;;;;;;;9.57;8.63;;;23.30;1.00;;;;;;5035673;28;20026;-62
2023/07/30 04:46:26;;;;;;;9.60;8.63;;;23.30;1.00;;;;;;5035565;28;20021;-63
2023/07/30 04:48:58;;;;;;;8.73;7.72;;;23.20;1.00;;;;;;5035961;28;20030;-63
2023/07/30 04:51:23;;;;;;;8.55;7.60;;;23.30;1.00;;;;;;5035602;28;20034;-62
2023/07/30 04:53:49;;;;;;;8.65;7.43;;;23.40;1.00;;;;;;5035593;28;20076;-62
2023/07/30 04:56:15;;;;;;;8.85;7.70;;;23.30;1.00;;;;;;5034249;28;20175;-62
2023/07/30 04:58:40;;;;;;;10.15;7.55;;;23.30;1.00;;;;;;5034024;28;20014;-62
2023/07/30 05:01:06;;;;;;;9.50;7.82;;;23.30;1.00;;;;;;5035721;28;20033;-62
2023/07/30 05:03:32;;;;;;;7.97;7.18;;;23.30;1.00;;;;;;5035534;28;20045;-62
2023/07/30 05:05:57;;;;;;;8.27;6.78;;;23.30;1.00;;;;;;5034423;28;20035;-62
2023/07/30 05:08:23;;;;;;;7.47;6.88;;;23.30;1.00;;;;;;5034410;28;20108;-62
2023/07/30 05:10:49;;;;;;;7.72;7.03;;;23.40;1.00;;;;;;5035037;28;20025;-63
2023/07/30 05:13:14;;;;;;;7.72;6.97;;;23.40;1.00;;;;;;5067217;28;20049;-63
2023/07/30 05:15:40;;;;;;;7.88;7.18;;;23.40;1.00;;;;;;5035122;28;20552;-63
2023/07/30 05:18:13;;;;;;;9.93;9.00;;;23.50;1.00;;;;;;5033805;28;20049;-62
2023/07/30 05:20:38;;;;;;;9.98;7.95;;;23.40;1.00;;;;;;5035019;28;20033;-63
2023/07/30 05:23:04;;;;;;;11.48;8.45;;;23.50;1.00;;;;;;5034974;28;20434;-63
2023/07/30 05:25:30;;;;;;;13.43;9.10;;;23.50;1.00;;;;;;5035105;28;20037;-63
2023/07/30 05:27:55;;;;;;;10.00;8.90;;;23.50;1.00;;;;;;5035105;28;20055;-63
2023/07/30 05:30:21;;;;;;;9.35;8.45;;;23.50;1.00;;;;;;5034960;28;20087;-63
2023/07/30 05:32:46;;;;;;;10.48;9.43;;;23.50;1.00;;;;;;5034804;28;20121;-63
2023/07/30 05:35:12;;;;;;;9.55;8.48;;;23.50;1.00;;;;;;5033622;28;20129;-63
2023/07/30 05:37:38;;;;;;;10.02;9.05;;;23.60;1.00;;;;;;5033633;28;20105;-63
2023/07/30 05:40:04;;;;;;;10.40;9.10;;;23.60;1.00;;;;;;5034996;28;20108;-63
2023/07/30 05:42:30;;;;;;;9.10;8.23;;;23.60;1.00;;;;;;5034927;28;20025;-63
2023/07/30 05:44:56;;;;;;;9.45;8.48;;;23.70;1.00;;;;;;5034525;28;20028;-63
2023/07/30 05:47:21;;;;;;;9.70;8.70;;;23.60;1.00;;;;;;5034600;28;20038;-63
2023/07/30 05:49:47;;;;;;;8.90;8.07;;;23.70;1.00;;;;;;5033604;28;20033;-63
2023/07/30 05:52:12;;;;;;;8.85;7.93;;;23.70;1.00;;;;;;5033883;28;20028;-63
2023/07/30 05:54:38;;;;;;;7.75;7.15;;;23.60;1.00;;;;;;5032664;28;20109;-63
2023/07/30 05:57:04;;;;;;;7.60;6.97;;;23.50;1.00;;;;;;5034163;28;20091;-63
2023/07/30 05:59:30;;;;;;;7.70;7.00;;;23.40;1.00;;;;;;5034257;28;20033;-63
2023/07/30 06:01:57;;;;;;;8.57;7.78;;;23.50;1.00;;;;;;5033952;28;20068;-63
2023/07/30 06:04:22;;;;;;;7.38;6.68;;;23.60;1.00;;;;;;5034751;28;20029;-63
2023/07/30 06:06:51;;;;;;;7.72;6.47;;;23.70;1.00;;;;;;5034161;28;20480;-64
2023/07/30 06:09:16;;;;;;;8.70;6.82;;;23.60;1.00;;;;;;5034126;28;20063;-63
2023/07/30 06:11:42;;;;;;;7.97;6.85;;;23.70;1.00;;;;;;5034153;28;20471;-63
2023/07/30 06:14:08;;;;;;;7.40;6.70;;;23.70;1.00;;;;;;5033856;28;20075;-63
2023/07/30 06:16:33;;;;;;;7.03;6.43;;;23.80;1.00;;;;;;5033858;28;20144;-63
2023/07/30 06:18:59;;;;;;;9.48;6.65;;;23.90;1.00;;;;;;5032674;28;20071;-63
2023/07/30 06:21:25;;;;;;;7.75;6.93;;;23.90;1.00;;;;;;5033778;28;20121;-63
2023/07/30 06:23:50;;;;;;;7.07;6.38;;;23.80;1.00;;;;;;5034225;28;20026;-63
2023/07/30 06:26:16;;;;;;;9.23;6.88;;;23.90;1.00;;;;;;5033945;28;20026;-62
2023/07/30 06:28:42;;;;;;;6.65;6.05;;;23.90;1.00;;;;;;5033930;28;20051;-62
2023/07/30 06:31:07;;;;;;;5.63;5.07;;;23.90;1.00;;;;;;5033744;28;20044;-63
2023/07/30 06:33:33;;;;;;;5.95;5.45;;;24.10;1.00;;;;;;5033899;28;20025;-63
2023/07/30 06:35:59;;;;;;;6.88;5.65;;;24.10;1.00;;;;;;5033851;28;20026;-63
2023/07/30 06:38:24;;;;;;;7.13;5.63;;;24.10;1.00;;;;;;5033931;28;20033;-63
2023/07/30 06:40:50;;;;;;;6.07;5.47;;;24.00;1.00;;;;;;5033555;28;20465;-62
2023/07/30 06:43:16;;;;;;;6.03;5.53;;;24.00;1.00;;;;;;5033358;28;20022;-62
2023/07/30 06:45:41;;;;;;;5.95;5.10;;;24.10;1.00;;;;;;5033486;28;20088;-62
2023/07/30 06:48:07;;;;;;;5.78;5.20;;;24.10;1.00;;;;;;5033380;28;20025;-62
2023/07/30 06:50:33;;;;;;;5.78;5.18;;;24.10;1.00;;;;;;5033335;28;20510;-62
2023/07/30 06:52:58;;;;;;;6.50;4.60;;;24.10;1.00;;;;;;5033299;28;20087;-62
2023/07/30 06:55:25;;;;;;;5.63;4.72;;;24.10;1.00;;;;;;5033546;28;20017;-62
2023/07/30 06:57:50;;;;;;;7.63;4.63;;;24.10;1.00;;;;;;5033647;28;20033;-62
2023/07/30 07:00:21;;;;;;;5.43;4.93;;;24.10;1.00;;;;;;5033263;28;20520;-62
2023/07/30 07:02:50;;;;;;;5.65;4.88;;;24.20;1.00;;;;;;5033296;28;20041;-63
2023/07/30 07:05:16;;;;;;;4.78;4.30;;;24.10;1.00;;;;;;5033061;28;20117;-62
2023/07/30 07:07:42;;;;;;;5.75;4.45;;;24.10;1.00;;;;;;5033258;28;20113;-62
2023/07/30 07:10:08;;;;;;;5.80;5.30;;;24.20;1.00;;;;;;5033184;28;20080;-62
2023/07/30 07:12:34;;;;;;;5.45;4.82;;;24.20;1.00;;;;;;5033095;28;20029;-62
2023/07/30 07:15:01;;;;;;;4.85;4.43;;;24.20;1.00;;;;;;5031793;28;20033;-62
2023/07/30 07:17:28;;;;;;;6.80;4.45;;;24.20;1.00;;;;;;5033056;28;20032;-63
2023/07/30 07:19:54;;;;;;;5.32;4.78;;;24.30;1.00;;;;;;5033029;28;20045;-63
2023/07/30 07:22:19;;;;;;;5.00;4.60;;;24.20;1.00;;;;;;5032856;28;20108;-63
2023/07/30 07:24:45;;;;;;;5.13;4.72;;;24.30;1.00;;;;;;5033252;28;20103;-63
2023/07/30 07:27:17;;;;;;;4.55;4.15;;;24.30;1.00;;;;;;5033032;28;20499;-63
2023/07/30 07:29:43;;;;;;;4.15;3.75;;;24.40;1.00;;;;;;5037308;28;20108;-63
2023/07/30 07:32:09;;;;;;;4.45;4.05;;;24.30;1.00;;;;;;5038347;28;20110;-63
2023/07/30 07:34:34;;;;;;;5.07;4.35;;;24.30;1.00;;;;;;5039446;28;20025;-63
2023/07/30 07:37:02;;;;;;;5.30;4.25;;;24.40;1.00;;;;;;5039523;28;20022;-63
2023/07/30 07:39:27;;;;;;;4.95;4.55;;;24.30;1.00;;;;;;5039701;28;20053;-63
2023/07/30 07:41:53;;;;;;;4.78;4.38;;;24.50;1.00;;;;;;5039650;28;20065;-63
2023/07/30 07:44:19;;;;;;;4.43;4.03;;;24.60;1.00;;;;;;5039328;28;20025;-63
2023/07/30 07:46:44;;;;;;;4.00;3.70;;;24.60;1.00;;;;;;5039210;28;20100;-63
2023/07/30 07:49:10;;;;;;;4.93;4.53;;;24.60;1.00;;;;;;5039677;28;20112;-63
2023/07/30 07:51:36;;;;;;;5.13;4.72;;;24.70;1.00;;;;;;5039371;28;20482;-63
2023/07/30 07:54:01;;;;;;;5.45;5.05;;;24.70;1.00;;;;;;5039122;28;20056;-62
2023/07/30 07:56:27;;;;;;;5.38;4.97;;;24.80;1.00;;;;;;5039345;28;20029;-62
2023/07/30 07:58:53;;;;;;;5.07;4.68;;;24.80;1.00;;;;;;5039265;28;20032;-62
2023/07/30 08:01:18;;;;;;;7.85;5.97;;;24.90;1.00;;;;;;5039136;28;20056;-63
2023/07/30 08:03:44;;;;;;;5.13;4.72;;;24.90;1.00;;;;;;5037895;28;20132;-63
2023/07/30 08:06:10;;;;;;;5.57;5.10;;;25.00;1.00;;;;;;5039235;28;20025;-63
2023/07/30 08:08:36;;;;;;;5.65;5.00;;;25.00;1.00;;;;;;5038800;28;20437;-64
2023/07/30 08:11:08;;;;;;;5.38;4.90;;;25.00;1.00;;;;;;5039418;28;20037;-64
2023/07/30 08:13:34;;;;;;;6.20;5.60;;;25.00;1.00;;;;;;5039000;28;20017;-63
2023/07/30 08:16:00;;;;;;;6.45;5.85;;;25.10;1.00;;;;;;5039057;28;20062;-63
2023/07/30 08:18:26;;;;;;;5.05;4.65;;;25.20;1.00;;;;;;5039102;28;20095;-62
2023/07/30 08:20:52;;;;;;;5.72;5.18;;;25.20;1.00;;;;;;5038899;28;20040;-62
2023/07/30 08:23:17;;;;;;;8.20;6.35;;;25.30;1.00;;;;;;5039127;28;20026;-62
2023/07/30 08:25:43;;;;;;;6.20;5.63;;;25.40;1.00;;;;;;5039311;28;20033;-62
2023/07/30 08:28:09;;;;;;;6.20;5.53;;;25.50;1.00;;;;;;5039031;28;20022;-62
2023/07/30 08:30:35;;;;;;;5.40;5.00;;;25.50;1.00;;;;;;5037757;28;20392;-62
2023/07/30 08:33:00;;;;;;;6.10;5.50;;;25.70;1.00;;;;;;5038838;28;20017;-62
2023/07/30 08:35:29;;;;;;;7.65;5.40;;;25.70;1.00;;;;;;5039043;28;20025;-62
2023/07/30 08:37:55;;;;;;;5.00;4.60;;;25.70;1.00;;;;;;5039097;28;20511;-62
2023/07/30 08:40:24;;;;;;;5.63;5.03;;;25.80;1.00;;;;;;5037673;28;20029;-62
2023/07/30 08:42:51;;;;;;;4.75;4.35;;;25.90;1.00;;;;;;5035688;28;20037;-62
2023/07/30 08:45:17;;;;;;;4.68;4.28;;;26.10;1.00;;;;;;5035713;28;20060;-62
2023/07/30 08:47:44;;;;;;;3.80;3.50;;;26.10;1.00;;;;;;5036060;28;20033;-62
2023/07/30 08:50:10;;;;;;;4.25;3.65;;;26.10;1.00;;;;;;5035866;28;20146;-62
2023/07/30 08:52:36;;;;;;;4.07;3.58;;;26.10;1.00;;;;;;5035740;28;20155;-62
2023/07/30 08:55:04;;;;;;;4.88;4.22;;;26.20;1.00;;;;;;5035884;28;20421;-63
2023/07/30 08:57:30;;;;;;;4.43;4.03;;;26.20;1.00;;;;;;5034188;28;20124;-62
2023/07/30 09:00:11;;;;;;;4.32;3.92;;;26.20;1.00;;;;;;5034212;28;20083;-62
2023/07/30 09:02:47;;;;;;;4.65;4.20;;;26.00;1.00;;;;;;5021532;28;20132;-63
2023/07/30 09:05:13;;;;;;;4.43;3.88;;;26.00;1.00;;;;;;5035743;28;20076;-63
2023/07/30 09:07:39;;;;;;;5.68;4.40;;;26.20;1.00;;;;;;5035598;28;20352;-62
2023/07/30 09:10:06;;;;;;;5.97;3.70;;;26.20;1.00;;;;;;5034205;28;20051;-62
2023/07/30 09:12:33;;;;;;;4.07;3.67;;;26.30;1.00;;;;;;5033983;28;20555;-62
2023/07/30 09:15:00;;;;;;;4.60;4.20;;;26.20;1.00;;;;;;5032937;28;20036;-62
2023/07/30 09:17:26;;;;;;;4.75;3.95;;;26.30;1.00;;;;;;5034284;28;20025;-63
2023/07/30 09:19:52;;;;;;;3.80;3.38;;;26.40;1.00;;;;;;5035451;28;20034;-62
2023/07/30 09:22:25;;;;;;;4.68;3.75;;;26.40;1.00;;;;;;5034672;28;20044;-63
2023/07/30 09:24:51;;;;;;;3.80;3.47;;;26.60;1.00;;;;;;5035426;28;20086;-63
2023/07/30 09:27:23;;;;;;;4.30;3.75;;;26.50;1.00;;;;;;5021011;28;20469;-63
2023/07/30 09:29:59;;;;;;;4.35;3.90;;;26.50;1.00;;;;;;5034960;28;20049;-63
2023/07/30 09:32:28;;;;;;;4.65;3.78;;;26.60;1.00;;;;;;5028876;28;20475;-65
2023/07/30 09:34:54;;;;;;;3.78;3.42;;;26.90;1.00;;;;;;5027700;28;20021;-63
2023/07/30 09:37:20;;;;;;;3.97;3.67;;;26.90;1.00;;;;;;5034682;28;20452;-63
2023/07/30 09:39:48;;;;;;;3.95;3.55;;;26.90;1.00;;;;;;5035074;28;20026;-63
2023/07/30 09:42:14;;;;;;;4.45;4.05;;;26.80;1.00;;;;;;5034398;28;20116;-63
2023/07/30 09:44:40;;;;;;;4.13;3.83;;;26.90;1.00;;;;;;5034490;28;20029;-63
2023/07/30 09:47:10;;;;;;;4.10;3.72;;;27.00;1.00;;;;;;5034805;28;20033;-63
2023/07/30 09:49:37;;;;;;;5.28;4.05;;;27.10;1.00;;;;;;5034419;28;20080;-62
2023/07/30 09:52:05;;;;;;;5.25;4.75;;;27.20;1.00;;;;;;5034037;28;20033;-62
2023/07/30 09:54:32;;;;;;;4.90;4.50;;;27.30;1.00;;;;;;5034448;28;20372;-62
2023/07/30 09:56:58;;;;;;;4.53;4.10;;;27.30;1.00;;;;;;5034351;28;20487;-62
2023/07/30 09:59:24;;;;;;;5.20;4.72;;;27.40;1.00;;;;;;5033110;28;20044;-62
2023/07/30 10:01:53;;;;;;;6.72;4.88;;;27.60;1.00;;;;;;5033098;28;20053;-62
2023/07/30 10:04:20;;;;;;;5.78;4.50;;;27.60;1.00;;;;;;5021056;28;20040;-62
2023/07/30 10:06:54;;;;;;;5.20;4.78;;;27.80;1.00;;;;;;5034310;28;20060;-62
2023/07/30 10:09:20;;;;;;;;;;;27.80;1.00;;;;;;5033353;28;20111;-62
2023/07/30 10:11:49;;;;;;;4.28;3.97;;;27.70;1.00;;;;;;5034192;28;19955;-63
2023/07/30 10:14:19;;;;;;;5.10;4.70;;;27.70;1.00;;;;;;5034078;28;20068;-62
2023/07/30 10:16:53;;;;;;;6.15;5.55;;;27.80;1.00;;;;;;5034328;28;20065;-63
2023/07/30 10:19:22;;;;;;;;;;;28.10;1.00;;;;;;5034207;28;20030;-62
2023/07/30 10:21:48;;;;;;;6.05;4.90;;;28.00;1.00;;;;;;5034104;28;19913;-62
2023/07/30 10:24:14;;;;;;;5.60;4.70;;;27.90;1.00;;;;;;5033741;28;20120;-62
2023/07/30 10:26:49;;;;;;;6.22;5.13;;;27.80;1.00;;;;;;5032603;28;20083;-63
2023/07/30 10:29:29;;;;;;;5.03;4.68;;;27.70;1.00;;;;;;5033494;28;20028;-62
2023/07/30 10:31:57;;;;;;;5.07;4.63;;;27.80;1.00;;;;;;5033743;28;20060;-62
2023/07/30 10:34:27;;;;;;;4.78;4.32;;;28.00;1.00;;;;;;5033631;28;20067;-62
2023/07/30 10:37:02;;;;;;;5.88;4.35;;;28.00;1.00;;;;;;5033667;28;20030;-62
2023/07/30 10:39:28;;;;;;;4.78;4.28;;;28.10;1.00;;;;;;5033605;28;20048;-62
2023/07/30 10:41:57;;;;;;;6.57;4.10;;;28.20;1.00;;;;;;5033652;28;20553;-62
2023/07/30 10:44:25;;;;;;;5.22;4.80;;;28.10;1.00;;;;;;5033528;28;20057;-63
2023/07/30 10:46:55;;;;;;;4.43;3.95;;;28.00;1.00;;;;;;5024097;28;20025;-63
2023/07/30 10:49:21;;;;;;;4.85;4.50;;;28.20;1.00;;;;;;5033443;28;20026;-64
2023/07/30 10:51:57;;;;;;;4.80;4.30;;;28.30;1.00;;;;;;5033258;28;20028;-64
2023/07/30 10:54:23;;;;;;;4.65;4.28;;;28.10;1.00;;;;;;5033737;28;20053;-64
2023/07/30 10:56:49;;;;;;;4.50;4.10;;;28.00;1.00;;;;;;5033300;28;20052;-63
2023/07/30 10:59:15;;;;;;;4.75;4.30;;;28.20;1.00;;;;;;5033276;28;20467;-63
2023/07/30 11:01:45;;;;;;;4.20;3.78;;;28.40;1.00;;;;;;5033200;28;20508;-63
2023/07/30 11:04:16;;;;;;;4.25;3.95;;;28.10;1.00;;;;;;5030934;28;20045;-63
2023/07/30 11:06:50;;;;;;;3.78;3.47;;;28.10;1.00;;;;;;5033184;28;20044;-63
2023/07/30 11:09:24;;;;;;;4.22;3.92;;;28.60;99.90;;;;;;5033126;28;20026;-63
2023/07/30 11:11:51;;;;;;;4.68;4.28;;;28.60;99.90;;;;;;5033201;28;20147;-63
2023/07/30 11:14:25;;;;;;;5.20;4.78;;;28.50;1.00;;;;;;5032202;28;20539;-63
2023/07/30 11:16:59;;;;;;;4.45;4.05;;;28.50;1.00;;;;;;5033166;28;20030;-63
2023/07/30 11:19:25;;;;;;;;;;;28.60;1.00;;;;;;5033712;28;20048;-63
2023/07/30 11:21:53;;;;;;;5.38;4.70;;;28.50;99.90;;;;;;5033259;28;20267;-63
2023/07/30 11:24:20;;;;;;;4.80;4.40;;;28.70;1.00;;;;;;5033257;28;20029;-63
2023/07/30 11:26:58;;;;;;;4.70;4.13;;;28.70;1.00;;;;;;5033181;28;20071;-63
2023/07/30 11:29:23;;;;;;;5.60;4.45;;;28.60;1.00;;;;;;5032915;28;20383;-64
2023/07/30 11:31:49;;;;;;;3.67;3.47;;;28.90;1.00;;;;;;5032900;28;20056;-63
2023/07/30 11:34:16;;;;;;;4.18;3.88;;;29.10;1.00;;;;;;5032889;28;20056;-63
2023/07/30 11:36:42;;;;;;;11.65;6.03;;;29.30;1.00;;;;;;5031605;28;20028;-63
2023/07/30 11:39:09;;;;;;;5.35;4.60;;;;;;;;;;5033132;28;20084;-63
2023/07/30 11:41:35;;;;;;;5.03;4.63;;;29.80;1.00;;;;;;5032686;28;20041;-63
2023/07/30 11:44:01;;;;;;;5.70;4.50;;;31.50;1.00;;;;;;5032705;28;20132;-63
2023/07/30 11:46:29;;;;;;;5.20;4.70;;;33.90;99.90;;;;;;5032911;28;20034;-63
2023/07/30 11:49:12;;;;;;;4.70;4.40;;;35.60;99.90;;;;;;5032753;28;20061;-63
2023/07/30 11:51:38;;;;;;;5.10;4.70;;;;;;;;;;5031673;28;20048;-62
2023/07/30 11:54:04;;;;;;;4.47;4.07;;;;;;;;;;5032768;28;20354;-63
2023/07/30 11:56:31;;;;;;;6.03;4.35;;;;;;;;;;5032889;28;20064;-63
2023/07/30 11:58:58;;;;;;;5.53;4.95;;;;;;;;;;5032686;28;20132;-63
2023/07/30 12:01:30;;;;;;;6.22;4.70;;;37.80;99.90;;;;;;5032581;28;20029;-63
2023/07/30 12:04:00;;;;;;;5.63;4.50;;;43.20;99.90;;;;;;5032439;28;20049;-63
2023/07/30 12:06:50;;;;;;;4.95;4.55;;;42.00;99.90;;;;;;5032551;28;20018;-63
2023/07/30 12:09:22;;;;;;;4.53;4.13;;;39.60;99.90;;;;;;5032836;28;20025;-64
2023/07/30 12:11:56;;;;;;;5.03;3.88;;;39.40;99.90;;;;;;5028022;28;20041;-63
2023/07/30 12:14:29;;;;;;;5.35;4.88;;;39.90;99.90;;;;;;5031821;28;20029;-63
2023/07/30 12:16:58;;;;;;;5.00;4.65;;;39.20;99.90;;;;;;5036552;28;20029;-63
2023/07/30 12:19:24;;;;;;;4.78;4.47;;;;;;;;;;5036346;28;20045;-63
2023/07/30 12:21:50;;;;;;;5.13;4.72;;;38.60;99.90;;;;;;5036507;28;20033;-63
2023/07/30 12:24:15;;;;;;;4.88;4.50;;;38.10;99.90;;;;;;5036162;28;20025;-63
2023/07/30 12:26:42;;;;;;;5.43;4.80;;;;;;;;;;5035297;28;20032;-63
2023/07/30 12:29:07;;;;;;;5.40;4.70;;;37.60;99.90;;;;;;5036107;28;20025;-63
2023/07/30 12:31:33;;;;;;;5.03;4.72;;;37.00;99.90;;;;;;5036494;28;20079;-63
2023/07/30 12:33:59;;;;;;;5.10;4.70;;;37.40;99.90;;;;;;5035946;28;20037;-63
2023/07/30 12:36:24;;;;;;;4.78;4.45;;;38.20;99.90;;;;;;5034178;28;20021;-63
2023/07/30 12:38:53;;;;;;;5.07;4.68;;;40.30;99.90;;;;;;5035779;28;20025;-62
2023/07/30 12:41:25;;;;;;;4.38;4.07;;;41.50;99.90;;;;;;5035444;28;20215;-62
2023/07/30 12:43:52;;;;;;;5.00;4.57;;;41.60;99.90;;;;;;5035742;28;20048;-62
2023/07/30 12:46:18;;;;;;;4.65;4.25;;;40.60;99.90;;;;;;5035638;28;20529;-64
2023/07/30 12:48:44;;;;;;;4.82;4.53;;;39.00;99.90;;;;;;5035971;28;20025;-63
2023/07/30 12:51:09;;;;;;;4.85;4.55;;;38.40;99.90;;;;;;5035606;28;20479;-62
2023/07/30 12:53:35;;;;;;;5.20;4.68;;;37.70;99.90;;;;;;5035723;28;20091;-63
2023/07/30 12:56:00;;;;;;;4.60;4.30;;;38.70;99.90;;;;;;5035477;28;20026;-63
2023/07/30 12:58:26;;;;;;;4.90;4.45;;;;;;;;;;5035494;28;20033;-62
2023/07/30 13:00:53;;;;;;;4.93;4.53;;;;;;;;;;5035372;28;20056;-63